Time;durP1;ratioP1;P1;durP2;ratioP2;P2;SDS_P1;SDS_P2;PMS_P1;PMS_P2;Temp;Humidity;BMP_temperature;BMP_pressure;BME280_temperature;BME280_humidity;BME280_pressure;Samples;Min_cycle;Max_cycle;Signal;HPM_P1;HPM_P2
2021/12/15 00:00:46;;;;;;;;;;;;;;;;;;5009126;28;19917;-70
2021/12/15 00:03:15;;;;;;;;;;;;;;;;;;5027296;28;19925;-70
2021/12/15 00:05:41;;;;;;;;;;;;;;;;;;5027629;28;19928;-70
2021/12/15 00:08:11;;;;;;;;;;;;;;;;;;5027118;28;19940;-70
2021/12/15 00:10:37;;;;;;;;;;;;;;;;;;5027117;28;19927;-70
2021/12/15 00:13:03;;;;;;;;;;;;;;;;;;5026738;28;19920;-70
2021/12/15 00:15:29;;;;;;;;;;;;;;;;;;5026298;28;20414;-70
2021/12/15 00:17:55;;;;;;;;;;;;;;;;;;5027059;28;19975;-70
2021/12/15 00:20:21;;;;;;;;;;;;;;;;;;5026886;28;19928;-70
2021/12/15 00:22:52;;;;;;;;;;;;;;;;;;5009620;28;19921;-70
2021/12/15 00:25:18;;;;;;;;;;;;;;;;;;5009927;28;20067;-70
2021/12/15 00:27:44;;;;;;;;;;;;;;;;;;5026736;28;19972;-70
2021/12/15 00:30:09;;;;;;;;;;;;;;;;;;5008228;28;19968;-70
2021/12/15 00:32:35;;;;;;;;;;;;;;;;;;5027105;28;20385;-70
2021/12/15 00:35:01;;;;;;;;;;;;;;;;;;5026510;28;20004;-71
2021/12/15 00:37:27;;;;;;;;;;;;;;;;;;5026900;28;19921;-71
2021/12/15 00:39:53;;;;;;;;;;;;;;;;;;5026640;28;19920;-70
2021/12/15 00:42:19;;;;;;;;;;;;;;;;;;5027231;28;20008;-70
2021/12/15 00:44:45;;;;;;;;;;;;;;;;;;5008989;28;19944;-70
2021/12/15 00:47:11;;;;;;;;;;;;;;;;;;5025606;28;19925;-71
2021/12/15 00:49:37;;;;;;;;;;;;;;;;;;5026656;28;19920;-71
2021/12/15 00:52:03;;;;;;;;;;;;;;;;;;5026259;28;19921;-71
2021/12/15 00:54:29;;;;;;;;;;;;;;;;;;5008787;28;19921;-71
2021/12/15 00:56:55;;;;;;;;;;;;;;;;;;5026506;28;19917;-72
2021/12/15 00:59:21;;;;;;;;;;;;;;;;;;5009347;28;19921;-71
2021/12/15 01:01:47;;;;;;;;;;;;;;;;;;5008454;28;20429;-71
2021/12/15 01:04:13;;;;;;;;;;;;;;;;;;5025948;28;20007;-71
2021/12/15 01:06:40;;;;;;;;;;;;;;;;;;5026384;28;19921;-71
2021/12/15 01:09:06;;;;;;;;;;;;;;;;;;5025936;28;19917;-70
2021/12/15 01:11:52;;;;;;;;;;;;;;;;;;5026633;28;19928;-70
2021/12/15 01:19:47;;;;;;;;;;;;;;;;;;5008848;28;20441;-70
2021/12/15 01:20:05;;;;;;;;;;;;;;;;;;5025845;28;19928;-70
2021/12/15 01:22:31;;;;;;;;;;;;;;;;;;5026166;28;19921;-70
2021/12/15 01:24:57;;;;;;;;;;;;;;;;;;5026281;28;20383;-71
2021/12/15 01:27:23;;;;;;;;;;;;;;;;;;5026104;28;19925;-71
2021/12/15 01:29:49;;;;;;;;;;;;;;;;;;5025809;28;19955;-70
2021/12/15 01:32:15;;;;;;;;;;;;;;;;;;5007897;28;19921;-70
2021/12/15 01:34:41;;;;;;;;;;;;;;;;;;5026415;28;19921;-70
2021/12/15 01:37:07;;;;;;;;;;;;;;;;;;5025959;28;19928;-70
2021/12/15 01:39:33;;;;;;;;;;;;;;;;;;5026093;28;19921;-70
2021/12/15 01:41:59;;;;;;;;;;;;;;;;;;5025831;28;19924;-70
2021/12/15 01:46:56;;;;;;;;;;;;;;;;;;5007515;28;19972;-70
2021/12/15 01:49:22;;;;;;;;;;;;;;;;;;5008653;28;19921;-73
2021/12/15 01:51:47;;;;;;;;;;;;;;;;;;4992758;28;19928;-70
2021/12/15 01:54:13;;;;;;;;;;;;;;;;;;5007657;28;20416;-71
2021/12/15 01:56:39;;;;;;;;;;;;;;;;;;5008210;28;19921;-70
2021/12/15 01:59:05;;;;;;;;;;;;;;;;;;5025560;28;19928;-71
2021/12/15 02:01:31;;;;;;;;;;;;;;;;;;5025394;28;19921;-70
2021/12/15 02:03:57;;;;;;;;;;;;;;;;;;5007699;28;20417;-70
2021/12/15 02:06:23;;;;;;;;;;;;;;;;;;5026132;28;19928;-71
2021/12/15 02:08:49;;;;;;;;;;;;;;;;;;5026304;28;19925;-70
2021/12/15 02:11:16;;;;;;;;;;;;;;;;;;5025204;28;19920;-70
2021/12/15 02:13:42;;;;;;;;;;;;;;;;;;5025824;28;20422;-70
2021/12/15 02:16:08;;;;;;;;;;;;;;;;;;5027284;28;19961;-70
2021/12/15 02:18:34;;;;;;;;;;;;;;;;;;5028811;28;19921;-70
2021/12/15 02:21:00;;;;;;;;;;;;;;;;;;5029351;28;19948;-70
2021/12/15 02:23:32;;;;;;;;;;;;;;;;;;5029287;28;19920;-70
2021/12/15 02:25:58;;;;;;;;;;;;;;;;;;5028540;28;19960;-70
2021/12/15 02:28:24;;;;;;;;;;;;;;;;;;5011562;28;19928;-71
2021/12/15 02:30:56;;;;;;;;;;;;;;;;;;5028762;28;19921;-70
2021/12/15 02:33:43;;;;;;;;;;;;;;;;;;4996680;28;19976;-71
2021/12/15 02:38:53;;;;;;;;;;;;;;;;;;4991165;28;19921;-71
2021/12/15 02:41:20;;;;;;;;;;;;;;;;;;5009648;28;19957;-70
2021/12/15 02:43:46;;;;;;;;;;;;;;;;;;5009134;28;19921;-70
2021/12/15 02:46:12;;;;;;;;;;;;;;;;;;5007997;28;19987;-70
2021/12/15 02:48:38;;;;;;;;;;;;;;;;;;5009204;28;20006;-70
2021/12/15 02:51:04;;;;;;;;;;;;;;;;;;4991179;28;19991;-70
2021/12/15 02:53:30;;;;;;;;;;;;;;;;;;5008779;28;19925;-70
2021/12/15 02:55:56;;;;;;;;;;;;;;;;;;4991045;28;20486;-70
2021/12/15 02:58:23;;;;;;;;;;;;;;;;;;4991504;28;19921;-71
2021/12/15 03:00:58;;;;;;;;;;;;;;;;;;5008588;28;19926;-70
2021/12/15 03:05:56;;;;;;;;;;;;;;;;;;5009025;28;19975;-70
2021/12/15 03:08:47;;;;;;;;;;;;;;;;;;4991105;28;19925;-71
2021/12/15 03:16:38;;;;;;;;;;;;;;;;;;5007554;28;19921;-71
2021/12/15 03:19:04;;;;;;;;;;;;;;;;;;4990394;28;19971;-70
2021/12/15 03:21:30;;;;;;;;;;;;;;;;;;4974933;28;19928;-70
2021/12/15 03:23:56;;;;;;;;;;;;;;;;;;5008513;28;19921;-70
2021/12/15 03:26:25;;;;;;;;;;;;;;;;;;5007588;28;19955;-71
2021/12/15 03:39:22;;;;;;;;;;;;;;;;;;5008284;28;19943;-73
2021/12/15 03:41:55;;;;;;;;;;;;;;;;;;5008295;28;19921;-70
2021/12/15 03:44:21;;;;;;;;;;;;;;;;;;5008459;28;19929;-72
2021/12/15 03:46:47;;;;;;;;;;;;;;;;;;4990365;28;19968;-71
2021/12/15 03:49:13;;;;;;;;;;;;;;;;;;5007603;28;19921;-70
2021/12/15 03:51:39;;;;;;;;;;;;;;;;;;5007586;28;19928;-70
2021/12/15 03:54:05;;;;;;;;;;;;;;;;;;4990250;28;19921;-70
2021/12/15 03:56:31;;;;;;;;;;;;;;;;;;5007988;28;19929;-71
2021/12/15 03:58:57;;;;;;;;;;;;;;;;;;5007047;28;20303;-70
2021/12/15 04:01:23;;;;;;;;;;;;;;;;;;4989261;28;20280;-70
2021/12/15 04:03:49;;;;;;;;;;;;;;;;;;4990430;28;19928;-70
2021/12/15 04:06:15;;;;;;;;;;;;;;;;;;5007223;28;19926;-70
2021/12/15 04:08:41;;;;;;;;;;;;;;;;;;5007503;28;19925;-70
2021/12/15 04:11:07;;;;;;;;;;;;;;;;;;5007371;28;19921;-70
2021/12/15 04:13:33;;;;;;;;;;;;;;;;;;5007466;28;20363;-70
2021/12/15 04:16:06;;;;;;;;;;;;;;;;;;5006142;28;19922;-70
2021/12/15 04:18:32;;;;;;;;;;;;;;;;;;5007080;28;20323;-70
2021/12/15 04:20:58;;;;;;;;;;;;;;;;;;5006867;28;20413;-70
2021/12/15 04:23:24;;;;;;;;;;;;;;;;;;4989477;28;19945;-71
2021/12/15 04:25:50;;;;;;;;;;;;;;;;;;5007702;28;19928;-70
2021/12/15 04:28:16;;;;;;;;;;;;;;;;;;5007150;28;19921;-71
2021/12/15 04:30:44;;;;;;;;;;;;;;;;;;5006050;28;19929;-70
2021/12/15 04:33:12;;;;;;;;;;;;;;;;;;5007158;28;20004;-71
2021/12/15 04:35:38;;;;;;;;;;;;;;;;;;5007365;28;19928;-70
2021/12/15 04:38:04;;;;;;;;;;;;;;;;;;4988269;28;19925;-70
2021/12/15 04:40:30;;;;;;;;;;;;;;;;;;5007265;28;19925;-71
2021/12/15 04:42:58;;;;;;;;;;;;;;;;;;5006656;28;19929;-70
2021/12/15 04:45:24;;;;;;;;;;;;;;;;;;5005942;28;19917;-71
2021/12/15 04:47:51;;;;;;;;;;;;;;;;;;4989726;28;19928;-70
2021/12/15 04:50:17;;;;;;;;;;;;;;;;;;5007426;28;19975;-70
2021/12/15 04:52:43;;;;;;;;;;;;;;;;;;5007073;28;19921;-70
2021/12/15 04:55:10;;;;;;;;;;;;;;;;;;4988969;28;19922;-71
2021/12/15 04:57:35;;;;;;;;;;;;;;;;;;4989224;28;20000;-70
2021/12/15 05:00:01;;;;;;;;;;;;;;;;;;5005770;28;20051;-71
2021/12/15 05:02:28;;;;;;;;;;;;;;;;;;4988880;28;20406;-71
2021/12/15 05:04:54;;;;;;;;;;;;;;;;;;5006476;28;19922;-71
2021/12/15 05:07:20;;;;;;;;;;;;;;;;;;4989606;28;19922;-71
2021/12/15 05:09:50;;;;;;;;;;;;;;;;;;4988781;28;19928;-71
2021/12/15 05:12:16;;;;;;;;;;;;;;;;;;5006375;28;20387;-71
2021/12/15 05:14:42;;;;;;;;;;;;;;;;;;5005858;28;20115;-70
2021/12/15 05:17:08;;;;;;;;;;;;;;;;;;5005869;28;19913;-71
2021/12/15 05:19:34;;;;;;;;;;;;;;;;;;4988919;28;20469;-71
2021/12/15 05:22:00;;;;;;;;;;;;;;;;;;5006413;28;20024;-71
2021/12/15 05:26:55;;;;;;;;;;;;;;;;;;5006123;28;19921;-70
2021/12/15 05:29:21;;;;;;;;;;;;;;;;;;5006162;28;19921;-71
2021/12/15 05:31:47;;;;;;;;;;;;;;;;;;4989109;28;20394;-71
2021/12/15 05:34:13;;;;;;;;;;;;;;;;;;5006064;28;19975;-71
2021/12/15 05:36:39;;;;;;;;;;;;;;;;;;5006518;28;19921;-70
2021/12/15 05:39:06;;;;;;;;;;;;;;;;;;5006174;28;19968;-70
2021/12/15 05:41:32;;;;;;;;;;;;;;;;;;5006115;28;20008;-70
2021/12/15 05:43:58;;;;;;;;;;;;;;;;;;5006395;28;20434;-71
2021/12/15 05:46:24;;;;;;;;;;;;;;;;;;4988375;28;19979;-71
2021/12/15 05:48:50;;;;;;;;;;;;;;;;;;5006787;28;19921;-70
2021/12/15 05:51:16;;;;;;;;;;;;;;;;;;4992392;28;19925;-70
2021/12/15 05:53:43;;;;;;;;;;;;;;;;;;5010103;28;20525;-71
2021/12/15 05:56:09;;;;;;;;;;;;;;;;;;5009846;28;20411;-70
2021/12/15 05:58:37;;;;;;;;;;;;;;;;;;5009515;28;19921;-70
2021/12/15 06:01:03;;;;;;;;;;;;;;;;;;5009261;28;19921;-70
2021/12/15 06:03:29;;;;;;;;;;;;;;;;;;5000334;28;19921;-70
2021/12/15 06:05:55;;;;;;;;;;;;;;;;;;5011423;28;19960;-70
2021/12/15 06:08:21;;;;;;;;;;;;;;;;;;5030074;28;19928;-70
2021/12/15 06:10:47;;;;;;;;;;;;;;;;;;5012535;28;19921;-68
2021/12/15 06:13:13;;;;;;;;;;;;;;;;;;5028914;28;20290;-68
2021/12/15 06:15:39;;;;;;;;;;;;;;;;;;5028621;28;19964;-69
2021/12/15 06:18:05;;;;;;;;;;;;;;;;;;5028708;28;19924;-69
2021/12/15 06:20:31;;;;;;;;;;;;;;;;;;5028748;28;19921;-69
2021/12/15 06:22:59;;;;;;;;;;;;;;;;;;5021653;28;19927;-68
2021/12/15 06:25:25;;;;;;;;;;;;;;;;;;5028578;28;19960;-68
2021/12/15 06:27:51;;;;;;;;;;;;;;;;;;5025080;28;19980;-68
2021/12/15 06:30:17;;;;;;;;;;;;;;;;;;5013365;28;19922;-68
2021/12/15 06:32:43;;;;;;;;;;;;;;;;;;5024126;28;19967;-68
2021/12/15 06:35:09;;;;;;;;;;;;;;;;;;5029038;28;19983;-68
2021/12/15 06:37:35;;;;;;;;;;;;;;;;;;5007506;28;20354;-69
2021/12/15 06:40:01;;;;;;;;;;;;;;;;;;5005790;28;19929;-69
2021/12/15 06:42:29;;;;;;;;;;;;;;;;;;5024632;28;20497;-68
2021/12/15 06:44:56;;;;;;;;;;;;;;;;;;5025146;28;19921;-69
2021/12/15 06:57:11;;;;;;;;;;;;;;;;;;5027971;28;19917;-68
2021/12/15 06:57:30;;;;;;;;;;;;;;;;;;5025553;28;20298;-69
2021/12/15 06:58:24;;;;;;;;;;;;;;;;;;5007288;28;19999;-70
2021/12/15 07:00:50;;;;;;;;;;;;;;;;;;5032282;28;20421;-67
2021/12/15 07:03:17;;;;;;;;;;;;;;;;;;5024675;28;19925;-68
2021/12/15 07:05:43;;;;;;;;;;;;;;;;;;5028009;28;20302;-68
2021/12/15 07:08:09;;;;;;;;;;;;;;;;;;5027883;28;21831;-68
2021/12/15 07:10:37;;;;;;;;;;;;;;;;;;5026899;28;19921;-68
2021/12/15 07:13:03;;;;;;;;;;;;;;;;;;5027416;28;19921;-69
2021/12/15 07:15:30;;;;;;;;;;;;;;;;;;5026635;28;20007;-69
2021/12/15 07:18:02;;;;;;;;;;;;;;;;;;5027559;28;19931;-68
2021/12/15 07:22:54;;;;;;;;;;;;;;;;;;5027362;28;19933;-69
2021/12/15 07:25:21;;;;;;;;;;;;;;;;;;5010137;28;20217;-68
2021/12/15 07:27:47;;;;;;;;;;;;;;;;;;5024497;28;19921;-69
2021/12/15 07:30:13;;;;;;;;;;;;;;;;;;5026080;28;19921;-68
2021/12/15 07:32:39;;;;;;;;;;;;;;;;;;5027606;28;20413;-69
2021/12/15 07:35:05;;;;;;;;;;;;;;;;;;5027392;28;19913;-68
2021/12/15 07:37:32;;;;;;;;;;;;;;;;;;5027449;28;20294;-69
2021/12/15 07:39:59;;;;;;;;;;;;;;;;;;5027070;28;19928;-69
2021/12/15 07:42:33;;;;;;;;;;;;;;;;;;5027092;28;20286;-69
2021/12/15 07:44:59;;;;;;;;;;;;;;;;;;5026009;28;20315;-69
2021/12/15 07:47:25;;;;;;;;;;;;;;;;;;5027562;28;20404;-69
2021/12/15 07:49:51;;;;;;;;;;;;;;;;;;5027442;28;19941;-70
2021/12/15 07:52:17;;;;;;;;;;;;;;;;;;5027286;28;19921;-68
2021/12/15 07:54:43;;;;;;;;;;;;;;;;;;5007930;28;19921;-69
2021/12/15 07:57:10;;;;;;;;;;;;;;;;;;5024407;28;19943;-69
2021/12/15 07:59:36;;;;;;;;;;;;;;;;;;5026336;28;19913;-69
2021/12/15 08:02:02;;;;;;;;;;;;;;;;;;5026851;28;19921;-69
2021/12/15 08:04:28;;;;;;;;;;;;;;;;;;5027178;28;19928;-69
2021/12/15 08:06:53;;;;;;;;;;;;;;;;;;5026304;28;19913;-70
2021/12/15 08:09:22;;;;;;;;;;;;;;;;;;5027110;28;19972;-69
2021/12/15 08:11:48;;;;;;;;;;;;;;;;;;5027047;28;19928;-69
2021/12/15 08:14:15;;;;;;;;;;;;;;;;;;5024759;28;19921;-69
2021/12/15 08:16:41;;;;;;;;;;;;;;;;;;5026893;28;19928;-68
2021/12/15 08:19:08;;;;;;;;;;;;;;;;;;5024909;28;19921;-68
2021/12/15 08:21:34;;;;;;;;;;;;;;;;;;5025662;28;19928;-68
2021/12/15 08:24:00;;;;;;;;;;;;;;;;;;5026456;28;19917;-69
2021/12/15 08:26:26;;;;;;;;;;;;;;;;;;5026664;28;19921;-69
2021/12/15 08:28:52;;;;;;;;;;;;;;;;;;5024926;28;19929;-70
2021/12/15 08:31:18;;;;;;;;;;;;;;;;;;5026569;28;19928;-69
2021/12/15 08:33:44;;;;;;;;;;;;;;;;;;5008061;28;19921;-69
2021/12/15 08:36:10;;;;;;;;;;;;;;;;;;5026239;28;20004;-69
2021/12/15 08:38:36;;;;;;;;;;;;;;;;;;5025991;28;19960;-69
2021/12/15 08:41:02;;;;;;;;;;;;;;;;;;5025814;28;19920;-68
2021/12/15 08:43:28;;;;;;;;;;;;;;;;;;5026727;28;19921;-69
2021/12/15 08:45:54;;;;;;;;;;;;;;;;;;5025223;28;19980;-69
2021/12/15 08:48:20;;;;;;;;;;;;;;;;;;5026964;28;19944;-69
2021/12/15 08:50:46;;;;;;;;;;;;;;;;;;5025593;28;19928;-68
2021/12/15 08:53:12;;;;;;;;;;;;;;;;;;5025686;28;19939;-69
2021/12/15 08:55:38;;;;;;;;;;;;;;;;;;5026026;28;19917;-69
2021/12/15 08:58:05;;;;;;;;;;;;;;;;;;5026040;28;20287;-69
2021/12/15 09:00:31;;;;;;;;;;;;;;;;;;5025483;28;19961;-69
2021/12/15 09:02:57;;;;;;;;;;;;;;;;;;5025383;28;20359;-69
2021/12/15 09:05:23;;;;;;;;;;;;;;;;;;5026211;28;19960;-69
2021/12/15 09:07:49;;;;;;;;;;;;;;;;;;5026786;28;19956;-69
2021/12/15 09:10:15;;;;;;;;;;;;;;;;;;5024938;28;19929;-69
2021/12/15 09:12:41;;;;;;;;;;;;;;;;;;5026144;28;19928;-69
2021/12/15 09:15:07;;;;;;;;;;;;;;;;;;5025018;28;19921;-69
2021/12/15 09:17:33;;;;;;;;;;;;;;;;;;5026228;28;19940;-69
2021/12/15 09:19:59;;;;;;;;;;;;;;;;;;5025131;28;20394;-69
2021/12/15 09:22:25;;;;;;;;;;;;;;;;;;5026022;28;19921;-69
2021/12/15 09:24:51;;;;;;;;;;;;;;;;;;5028281;28;19912;-69
2021/12/15 09:27:17;;;;;;;;;;;;;;;;;;5030576;28;20290;-69
2021/12/15 09:29:43;;;;;;;;;;;;;;;;;;5028979;28;20051;-69
2021/12/15 09:32:09;;;;;;;;;;;;;;;;;;5029743;28;20390;-69
2021/12/15 09:34:36;;;;;;;;;;;;;;;;;;5030038;28;19928;-69
2021/12/15 09:37:04;;;;;;;;;;;;;;;;;;5011297;28;19921;-69
2021/12/15 09:39:30;;;;;;;;;;;;;;;;;;5011378;28;20458;-69
2021/12/15 09:41:56;;;;;;;;;;;;;;;;;;5029659;28;20014;-69
2021/12/15 09:44:25;;;;;;;;;;;;;;;;;;5028746;28;20292;-69
2021/12/15 09:47:11;;;;;;;;;;;;;;;;;;5026210;28;19921;-69
2021/12/15 10:03:21;;;;;;;;;;;;;;;;;;5026010;28;19928;-70
2021/12/15 10:05:57;;;;;;;;;;;;;;;;;;5008619;28;19928;-69
2021/12/15 10:11:12;;;;;;;;;;;;;;;;;;5027324;28;20287;-69
2021/12/15 10:19:17;;;;;;;;;;;;;;;;;;5028297;28;20405;-69
2021/12/15 10:21:45;;;;;;;;;;;;;;;;;;5029038;28;20016;-69
2021/12/15 10:24:13;;;;;;;;;;;;;;;;;;5028538;28;20375;-69
2021/12/15 10:26:39;;;;;;;;;;;;;;;;;;5029102;28;20687;-70
2021/12/15 10:29:05;;;;;;;;;;;;;;;;;;5026460;28;20456;-70
2021/12/15 10:31:31;;;;;;;;;;;;;;;;;;5026146;28;19921;-70
2021/12/15 10:33:57;;;;;;;;;;;;;;;;;;5028798;28;20015;-70
2021/12/15 10:36:23;;;;;;;;;;;;;;;;;;5026858;28;20003;-69
2021/12/15 10:38:51;;;;;;;;;;;;;;;;;;5028195;28;19929;-69
2021/12/15 10:41:17;;;;;;;;;;;;;;;;;;5027253;28;19924;-69
2021/12/15 10:43:43;;;;;;;;;;;;;;;;;;5028071;28;19928;-69
2021/12/15 10:46:09;;;;;;;;;;;;;;;;;;5027636;28;19920;-70
2021/12/15 10:48:36;;;;;;;;;;;;;;;;;;5028551;28;19927;-70
2021/12/15 10:51:02;;;;;;;;;;;;;;;;;;5028027;28;19925;-70
2021/12/15 10:53:28;;;;;;;;;;;;;;;;;;5028452;28;19928;-70
2021/12/15 10:55:54;;;;;;;;;;;;;;;;;;5028100;28;19982;-70
2021/12/15 10:58:20;;;;;;;;;;;;;;;;;;5027307;28;19999;-70
2021/12/15 11:00:46;;;;;;;;;;;;;;;;;;5027975;28;20544;-70
2021/12/15 11:03:16;;;;;;;;;;;;;;;;;;5028144;28;19925;-70
2021/12/15 11:05:42;;;;;;;;;;;;;;;;;;5010055;28;20360;-70
2021/12/15 11:08:08;;;;;;;;;;;;;;;;;;5027853;28;20013;-70
2021/12/15 11:10:34;;;;;;;;;;;;;;;;;;5028022;28;20003;-70
2021/12/15 11:13:00;;;;;;;;;;;;;;;;;;5027631;28;19972;-70
2021/12/15 11:15:27;;;;;;;;;;;;;;;;;;5027505;28;19956;-70
2021/12/15 11:17:53;;;;;;;;;;;;;;;;;;5027407;28;20012;-70
2021/12/15 11:20:19;;;;;;;;;;;;;;;;;;5027516;28;20012;-70
2021/12/15 11:22:45;;;;;;;;;;;;;;;;;;5027850;28;19920;-70
2021/12/15 11:25:11;;;;;;;;;;;;;;;;;;5027954;28;20490;-69
2021/12/15 11:27:37;;;;;;;;;;;;;;;;;;5024287;28;19951;-69
2021/12/15 11:30:03;;;;;;;;;;;;;;;;;;5026307;28;20355;-70
2021/12/15 11:32:29;;;;;;;;;;;;;;;;;;5027788;28;19927;-70
2021/12/15 11:34:55;;;;;;;;;;;;;;;;;;5027738;28;19937;-70
2021/12/15 11:37:21;;;;;;;;;;;;;;;;;;5024426;28;19921;-70
2021/12/15 11:39:47;;;;;;;;;;;;;;;;;;5027929;28;19921;-69
2021/12/15 11:42:13;;;;;;;;;;;;;;;;;;5027127;28;19913;-69
2021/12/15 11:44:39;;;;;;;;;;;;;;;;;;5026455;28;19929;-70
2021/12/15 11:47:08;;;;;;;;;;;;;;;;;;5026647;28;20384;-70
2021/12/15 11:49:34;;;;;;;;;;;;;;;;;;5008381;28;19928;-69
2021/12/15 11:52:00;;;;;;;;;;;;;;;;;;5024469;28;20015;-72
2021/12/15 11:54:27;;;;;;;;;;;;;;;;;;5026422;28;19921;-70
2021/12/15 11:56:53;;;;;;;;;;;;;;;;;;5026437;28;19925;-70
2021/12/15 11:59:19;;;;;;;;;;;;;;;;;;5026983;28;19999;-69
2021/12/15 12:01:45;;;;;;;;;;;;;;;;;;5026775;28;20341;-69
2021/12/15 12:04:11;;;;;;;;;;;;;;;;;;5026291;28;20509;-69
2021/12/15 12:06:37;;;;;;;;;;;;;;;;;;5025798;28;19928;-69
2021/12/15 12:09:03;;;;;;;;;;;;;;;;;;5024144;28;19925;-69
2021/12/15 12:11:33;;;;;;;;;;;;;;;;;;5025153;28;19921;-68
2021/12/15 12:14:00;;;;;;;;;;;;;;;;;;5020493;28;19933;-68
2021/12/15 12:16:26;;;;;;;;;;;;;;;;;;5025143;28;19928;-69
2021/12/15 12:18:52;;;;;;;;;;;;;;;;;;5024922;28;20601;-70
2021/12/15 12:21:18;;;;;;;;;;;;;;;;;;5027552;28;19948;-69
2021/12/15 12:23:46;;;;;;;;;;;;;;;;;;5027074;28;19996;-69
2021/12/15 12:26:12;;;;;;;;;;;;;;;;;;5026153;28;19924;-69
2021/12/15 12:28:39;;;;;;;;;;;;;;;;;;5026198;28;19924;-69
2021/12/15 12:31:05;;;;;;;;;;;;;;;;;;5026805;28;19921;-70
2021/12/15 12:33:31;;;;;;;;;;;;;;;;;;5023086;28;19928;-69
2021/12/15 12:35:57;;;;;;;;;;;;;;;;;;5026357;28;19917;-70
2021/12/15 12:38:23;;;;;;;;;;;;;;;;;;5025425;28;20391;-69
2021/12/15 12:40:49;;;;;;;;;;;;;;;;;;5026249;28;20030;-69
2021/12/15 12:43:15;;;;;;;;;;;;;;;;;;5025665;28;20353;-69
2021/12/15 12:45:42;;;;;;;;;;;;;;;;;;5026475;28;19925;-69
2021/12/15 12:48:26;;;;;;;;;;;;;;;;;;5026143;28;19995;-69
2021/12/15 12:57:54;;;;;;;;;;;;;;;;;;5025605;28;20290;-70
2021/12/15 12:59:24;;;;;;;;;;;;;;;;;;5024278;28;20333;-69
2021/12/15 13:01:50;;;;;;;;;;;;;;;;;;5007782;28;20389;-69
2021/12/15 13:04:16;;;;;;;;;;;;;;;;;;5026113;28;19921;-69
2021/12/15 13:06:42;;;;;;;;;;;;;;;;;;5026302;28;20024;-69
2021/12/15 13:09:10;;;;;;;;;;;;;;;;;;5007810;28;19920;-69
2021/12/15 13:11:38;;;;;;;;;;;;;;;;;;5026121;28;19928;-69
2021/12/15 13:14:04;;;;;;;;;;;;;;;;;;5007084;28;19967;-69
2021/12/15 13:16:30;;;;;;;;;;;;;;;;;;5006963;28;19917;-69
2021/12/15 13:18:56;;;;;;;;;;;;;;;;;;5025021;28;19921;-69
2021/12/15 13:21:24;;;;;;;;;;;;;;;;;;5026436;28;20473;-69
2021/12/15 13:23:56;;;;;;;;;;;;;;;;;;5026175;28;19978;-69
2021/12/15 13:29:26;;;;;;;;;;;;;;;;;;5024170;28;19921;-70
2021/12/15 13:31:52;;;;;;;;;;;;;;;;;;5025757;28;19967;-70
2021/12/15 13:34:18;;;;;;;;;;;;;;;;;;5025932;28;19925;-69
2021/12/15 13:36:44;;;;;;;;;;;;;;;;;;5025937;28;20386;-69
2021/12/15 13:39:10;;;;;;;;;;;;;;;;;;5023555;28;19917;-69
2021/12/15 13:44:02;;;;;;;;;;;;;;;;;;5024654;28;19943;-69
2021/12/15 13:46:28;;;;;;;;;;;;;;;;;;5025537;28;19921;-70
2021/12/15 13:48:54;;;;;;;;;;;;;;;;;;5025645;28;19928;-69
2021/12/15 13:51:20;;;;;;;;;;;;;;;;;;5025903;28;19929;-69
2021/12/15 13:53:46;;;;;;;;;;;;;;;;;;5025725;28;19992;-69
2021/12/15 13:56:12;;;;;;;;;;;;;;;;;;5023651;28;19928;-69
2021/12/15 13:58:38;;;;;;;;;;;;;;;;;;5025257;28;19921;-69
2021/12/15 14:01:04;;;;;;;;;;;;;;;;;;5025051;28;20635;-69
2021/12/15 14:03:30;;;;;;;;;;;;;;;;;;5025884;28;19960;-69
2021/12/15 14:05:56;;;;;;;;;;;;;;;;;;5025572;28;19949;-70
2021/12/15 14:08:22;;;;;;;;;;;;;;;;;;5023784;28;19925;-70
2021/12/15 14:10:48;;;;;;;;;;;;;;;;;;5007251;28;20004;-69
2021/12/15 14:13:14;;;;;;;;;;;;;;;;;;5010509;28;20386;-69
2021/12/15 14:15:41;;;;;;;;;;;;;;;;;;5029117;28;19929;-69
2021/12/15 14:18:07;;;;;;;;;;;;;;;;;;5029130;28;19921;-69
2021/12/15 14:20:33;;;;;;;;;;;;;;;;;;5028647;28;19921;-69
2021/12/15 14:22:59;;;;;;;;;;;;;;;;;;5028788;28;20267;-69
2021/12/15 14:25:25;;;;;;;;;;;;;;;;;;5029152;28;19920;-69
2021/12/15 14:27:51;;;;;;;;;;;;;;;;;;5028515;28;20022;-69
2021/12/15 14:30:17;;;;;;;;;;;;;;;;;;5029248;28;19921;-69
2021/12/15 14:32:43;;;;;;;;;;;;;;;;;;5028251;28;20006;-69
2021/12/15 14:35:09;;;;;;;;;;;;;;;;;;4994834;28;19980;-69
2021/12/15 14:37:35;;;;;;;;;;;;;;;;;;5028626;28;19982;-69
2021/12/15 14:40:01;;;;;;;;;;;;;;;;;;5025534;28;19928;-69
2021/12/15 14:42:27;;;;;;;;;;;;;;;;;;5028277;28;20386;-69
2021/12/15 14:44:53;;;;;;;;;;;;;;;;;;5027608;28;19924;-70
2021/12/15 14:47:19;;;;;;;;;;;;;;;;;;5029065;28;19921;-69
2021/12/15 14:49:45;;;;;;;;;;;;;;;;;;5028714;28;20406;-69
2021/12/15 14:52:11;;;;;;;;;;;;;;;;;;5028419;28;19948;-69
2021/12/15 14:54:37;;;;;;;;;;;;;;;;;;5028582;28;19928;-69
2021/12/15 14:57:03;;;;;;;;;;;;;;;;;;5028548;28;20015;-69
2021/12/15 14:59:29;;;;;;;;;;;;;;;;;;5027472;28;19921;-69
2021/12/15 15:01:55;;;;;;;;;;;;;;;;;;5028123;28;19921;-70
2021/12/15 15:04:25;;;;;;;;;;;;;;;;;;5027686;28;19929;-69
2021/12/15 15:06:51;;;;;;;;;;;;;;;;;;5028852;28;19921;-69
2021/12/15 15:09:17;;;;;;;;;;;;;;;;;;5028703;28;19927;-69
2021/12/15 15:11:43;;;;;;;;;;;;;;;;;;5028297;28;19929;-69
2021/12/15 15:14:09;;;;;;;;;;;;;;;;;;5026962;28;20725;-69
2021/12/15 15:16:35;;;;;;;;;;;;;;;;;;5007904;28;19921;-69
2021/12/15 15:19:05;;;;;;;;;;;;;;;;;;5027150;28;19967;-69
2021/12/15 15:21:31;;;;;;;;;;;;;;;;;;5027997;28;19921;-69
2021/12/15 15:23:58;;;;;;;;;;;;;;;;;;5027641;28;19928;-69
2021/12/15 15:26:27;;;;;;;;;;;;;;;;;;5027517;28;20635;-70
2021/12/15 15:28:53;;;;;;;;;;;;;;;;;;5026890;28;19917;-70
2021/12/15 15:31:19;;;;;;;;;;;;;;;;;;5028042;28;19921;-69
2021/12/15 15:33:45;;;;;;;;;;;;;;;;;;5027511;28;19928;-69
2021/12/15 15:36:13;;;;;;;;;;;;;;;;;;5027550;28;20243;-70
2021/12/15 15:38:39;;;;;;;;;;;;;;;;;;5027752;28;19968;-69
2021/12/15 15:41:05;;;;;;;;;;;;;;;;;;5027109;28;20010;-69
2021/12/15 15:43:36;;;;;;;;;;;;;;;;;;5026965;28;19960;-69
2021/12/15 15:46:02;;;;;;;;;;;;;;;;;;5026747;28;19927;-69
2021/12/15 15:48:28;;;;;;;;;;;;;;;;;;5027360;28;20004;-69
2021/12/15 15:50:54;;;;;;;;;;;;;;;;;;5027195;28;20374;-70
2021/12/15 15:53:20;;;;;;;;;;;;;;;;;;5027856;28;19928;-69
2021/12/15 15:55:46;;;;;;;;;;;;;;;;;;5026280;28;19975;-69
2021/12/15 15:58:12;;;;;;;;;;;;;;;;;;5026178;28;20051;-69
2021/12/15 16:00:38;;;;;;;;;;;;;;;;;;5027143;28;20020;-70
2021/12/15 16:03:04;;;;;;;;;;;;;;;;;;5026823;28;20306;-70
2021/12/15 16:05:30;;;;;;;;;;;;;;;;;;5027498;28;19917;-70
2021/12/15 16:07:56;;;;;;;;;;;;;;;;;;5008319;28;19921;-70
2021/12/15 16:10:22;;;;;;;;;;;;;;;;;;5027035;28;19921;-70
2021/12/15 16:12:48;;;;;;;;;;;;;;;;;;5026780;28;20301;-70
2021/12/15 16:15:14;;;;;;;;;;;;;;;;;;5026798;28;20031;-70
2021/12/15 16:17:44;;;;;;;;;;;;;;;;;;5007761;28;19921;-70
2021/12/15 16:20:15;;;;;;;;;;;;;;;;;;5025924;28;20365;-70
2021/12/15 16:22:50;;;;;;;;;;;;;;;;;;5026247;28;20723;-70
2021/12/15 16:25:16;;;;;;;;;;;;;;;;;;5026857;28;20270;-69
2021/12/15 16:27:43;;;;;;;;;;;;;;;;;;5025977;28;20414;-69
2021/12/15 16:30:09;;;;;;;;;;;;;;;;;;5025227;28;19975;-70
2021/12/15 16:32:35;;;;;;;;;;;;;;;;;;5026937;28;19967;-67
2021/12/15 16:35:01;;;;;;;;;;;;;;;;;;5025984;28;20327;-70
2021/12/15 16:37:26;;;;;;;;;;;;;;;;;;5017795;28;19921;-69
2021/12/15 16:39:52;;;;;;;;;;;;;;;;;;5031747;28;19979;-70
2021/12/15 16:42:18;;;;;;;;;;;;;;;;;;5045205;28;19999;-68
2021/12/15 16:44:44;;;;;;;;;;;;;;;;;;5030794;28;19925;-68
2021/12/15 16:47:11;;;;;;;;;;;;;;;;;;5026517;28;20401;-68
2021/12/15 16:49:37;;;;;;;;;;;;;;;;;;5032069;28;20317;-68
2021/12/15 16:52:03;;;;;;;;;;;;;;;;;;5029287;28;20393;-68
2021/12/15 16:54:29;;;;;;;;;;;;;;;;;;5011000;28;20011;-68
2021/12/15 16:56:55;;;;;;;;;;;;;;;;;;5025750;28;20353;-67
2021/12/15 16:59:21;;;;;;;;;;;;;;;;;;5027082;28;20012;-68
2021/12/15 17:01:47;;;;;;;;;;;;;;;;;;5025555;28;19921;-69
2021/12/15 17:04:13;;;;;;;;;;;;;;;;;;5023692;28;21148;-68
2021/12/15 17:06:39;;;;;;;;;;;;;;;;;;5025290;28;19967;-69
2021/12/15 17:09:05;;;;;;;;;;;;;;;;;;5026046;28;19928;-69
2021/12/15 17:11:31;;;;;;;;;;;;;;;;;;5020742;28;19964;-69
2021/12/15 17:13:57;;;;;;;;;;;;;;;;;;5024910;28;19963;-69
2021/12/15 17:16:26;;;;;;;;;;;;;;;;;;5026198;28;19924;-69
2021/12/15 17:18:52;;;;;;;;;;;;;;;;;;5025403;28;19951;-69
2021/12/15 17:21:18;;;;;;;;;;;;;;;;;;5006339;28;20009;-69
2021/12/15 17:23:48;;;;;;;;;;;;;;;;;;5024507;28;19925;-69
2021/12/15 17:26:14;;;;;;;;;;;;;;;;;;5022301;28;19929;-69
2021/12/15 17:28:40;;;;;;;;;;;;;;;;;;5027919;28;19924;-69
2021/12/15 17:31:06;;;;;;;;;;;;;;;;;;4995486;28;19925;-69
2021/12/15 17:33:33;;;;;;;;;;;;;;;;;;5021347;28;19925;-69
2021/12/15 17:35:59;;;;;;;;;;;;;;;;;;5016133;28;19920;-69
2021/12/15 17:38:25;;;;;;;;;;;;;;;;;;5022912;28;19921;-69
2021/12/15 17:40:51;;;;;;;;;;;;;;;;;;5024715;28;19924;-69
2021/12/15 17:43:17;;;;;;;;;;;;;;;;;;5024425;28;19920;-69
2021/12/15 17:45:43;;;;;;;;;;;;;;;;;;5026865;28;20687;-69
2021/12/15 17:48:09;;;;;;;;;;;;;;;;;;5029812;28;19979;-68
2021/12/15 17:50:36;;;;;;;;;;;;;;;;;;5018294;28;19922;-68
2021/12/15 17:53:03;;;;;;;;;;;;;;;;;;5026269;28;20434;-69